Time;durP1;ratioP1;P1;durP2;ratioP2;P2;SDS_P1;SDS_P2;PMS_P1;PMS_P2;Temp;Humidity;BMP_temperature;BMP_pressure;BME280_temperature;BME280_humidity;BME280_pressure;Samples;Min_cycle;Max_cycle;Signal;HPM_P1;HPM_P2
2022/10/19 00:01:15;;;;;;;17.30;8.07;;;;;;;10.60;100.00;100356.22;4954240;29;20037;-84
2022/10/19 00:03:41;;;;;;;17.65;9.25;;;;;;;10.61;100.00;100358.72;4954532;29;20215;-84
2022/10/19 00:06:12;;;;;;;21.40;8.95;;;;;;;10.61;100.00;100358.72;4955613;28;20504;-85
2022/10/19 00:08:38;;;;;;;17.23;8.25;;;;;;;10.55;100.00;100360.16;4938086;29;20057;-84
2022/10/19 00:11:03;;;;;;;15.93;8.48;;;;;;;10.57;100.00;100366.09;4955517;28;20517;-84
2022/10/19 00:13:29;;;;;;;12.88;7.45;;;;;;;10.61;100.00;100371.00;4938366;29;20034;-84
2022/10/19 00:15:54;;;;;;;16.45;7.78;;;;;;;10.53;100.00;100369.19;4938475;29;20533;-84
2022/10/19 00:18:20;;;;;;;13.55;8.20;;;;;;;10.50;100.00;100366.88;4954022;29;20027;-84
2022/10/19 00:20:46;;;;;;;15.57;7.97;;;;;;;10.50;100.00;100366.88;4953587;29;20398;-84
2022/10/19 00:23:11;;;;;;;20.58;8.95;;;;;;;10.56;100.00;100380.19;4955417;28;20028;-85
2022/10/19 00:25:37;;;;;;;13.35;8.48;;;;;;;10.48;100.00;100374.09;4957113;29;20034;-86
2022/10/19 00:28:03;;;;;;;15.93;7.82;;;;;;;10.38;100.00;100361.88;4956386;29;20023;-86
2022/10/19 00:30:28;;;;;;;13.85;7.45;;;;;;;10.42;100.00;100362.44;4956499;28;20074;-86
2022/10/19 00:32:54;;;;;;;13.65;7.93;;;;;;;10.49;100.00;100360.78;4954406;29;20151;-85
2022/10/19 00:35:19;;;;;;;13.25;7.10;;;;;;;10.43;100.00;100350.94;4939459;29;20039;-86
2022/10/19 00:37:45;;;;;;;15.93;7.88;;;;;;;10.40;100.00;100349.47;4939468;29;20039;-85
2022/10/19 00:40:10;;;;;;;12.38;6.97;;;;;;;10.40;100.00;100341.59;4956035;28;20023;-85
2022/10/19 00:42:38;;;;;;;15.57;7.22;;;;;;;10.45;100.00;100342.94;4955252;29;20054;-85
2022/10/19 00:45:15;;;;;;;15.90;7.18;;;;;;;10.58;100.00;100359.00;4955025;29;20474;-84
2022/10/19 00:47:44;;;;;;;14.38;6.25;;;;;;;10.60;100.00;100356.22;4932619;29;20062;-83
2022/10/19 00:50:13;;;;;;;12.10;6.68;;;;;;;10.46;100.00;100339.31;4953626;29;20367;-83
2022/10/19 00:52:40;;;;;;;13.80;6.50;;;;;;;10.42;100.00;100334.41;4952445;29;20117;-85
2022/10/19 00:55:07;;;;;;;17.45;6.30;;;;;;;10.46;100.00;100334.88;4954309;29;20042;-82
2022/10/19 00:57:33;;;;;;;12.55;6.53;;;;;;;10.41;100.00;100337.97;4954800;28;20033;-84
2022/10/19 01:00:01;;;;;;;17.98;7.07;;;;;;;10.38;100.00;100322.53;4954018;29;20035;-84
2022/10/19 01:02:27;;;;;;;18.38;6.45;;;;;;;10.50;100.00;100343.25;4957055;28;20033;-83
2022/10/19 01:04:52;;;;;;;11.52;6.35;;;;;;;10.51;100.00;100342.28;4955023;29;20057;-85
2022/10/19 01:07:19;;;;;;;12.07;6.65;;;;;;;10.43;100.00;100336.03;4941899;29;20023;-84
2022/10/19 01:09:44;;;;;;;13.45;6.35;;;;;;;10.46;100.00;100334.88;4957901;29;20078;-86
2022/10/19 01:12:42;;;;;;;12.85;6.18;;;;;;;10.54;100.00;100326.19;4942200;29;20035;-84
2022/10/19 01:15:35;;;;;;;10.98;5.47;;;;;;;10.54;100.00;100331.44;4957982;29;20085;-86
2022/10/19 01:18:28;;;;;;;11.63;6.05;;;;;;;10.54;100.00;100332.28;4955342;29;20050;-85
2022/10/19 01:21:09;;;;;;;17.48;6.32;;;;;;;10.51;100.00;100329.94;4957734;29;20122;-85
2022/10/19 01:24:02;;;;;;;12.32;5.63;;;;;;;10.56;100.00;100332.09;4959101;28;20537;-84
2022/10/19 01:26:46;;;;;;;12.50;5.75;;;;;;;10.54;100.00;100332.28;4957714;29;20039;-85
2022/10/19 01:29:33;;;;;;;11.70;5.97;;;;;;;10.54;100.00;100321.78;4941444;29;20111;-83
2022/10/19 01:32:08;;;;;;;10.07;5.10;;;;;;;10.57;100.00;100315.34;4939045;29;20421;-84
2022/10/19 01:35:06;;;;;;;11.52;6.10;;;;;;;10.63;100.00;100319.97;4958950;28;20059;-84
2022/10/19 01:38:03;;;;;;;12.27;5.38;;;;;;;10.54;100.00;100313.91;4906733;28;21548;-84
2022/10/19 01:40:40;;;;;;;11.07;5.15;;;;;;;10.56;100.00;100326.84;4971788;28;20062;-86
2022/10/19 01:43:25;;;;;;;11.52;5.63;;;;;;;10.56;100.00;100311.09;4939893;29;20058;-86
2022/10/19 01:46:09;;;;;;;8.65;4.90;;;;;;;10.59;100.00;100323.09;4941144;29;20478;-86
2022/10/19 01:48:39;;;;;;;9.30;4.63;;;;;;;10.41;100.00;100301.22;4956873;29;20473;-85
2022/10/19 01:51:17;;;;;;;12.77;5.80;;;;;;;10.58;100.00;100314.38;4941046;29;20031;-85
2022/10/19 01:53:50;;;;;;;12.38;5.78;;;;;;;10.53;100.00;100300.91;4958091;29;20043;-87
2022/10/19 01:56:20;;;;;;;;;;;;;;;10.57;100.00;100310.09;4958573;29;20090;-85
2022/10/19 01:58:49;;;;;;;15.00;6.40;;;;;;;10.53;100.00;100300.91;4957150;29;20377;-85
2022/10/19 02:01:19;;;;;;;12.77;6.43;;;;;;;10.44;100.00;100292.22;4958576;28;20034;-84
2022/10/19 02:03:46;;;;;;;11.63;5.93;;;;;;;10.53;100.00;100288.63;4957077;29;20062;-85
2022/10/19 02:06:13;;;;;;;17.98;6.88;;;;;;;10.49;100.00;100281.22;4971042;28;20035;-85
2022/10/19 02:08:52;;;;;;;19.13;7.00;;;;;;;10.52;100.00;100275.66;4957958;29;20034;-87
2022/10/19 02:11:21;;;;;;;15.65;6.30;;;;;;;10.39;100.00;100269.03;4934028;29;20070;-86
2022/10/19 02:13:55;;;;;;;14.02;6.00;;;;;;;10.41;100.00;100269.72;4956910;28;20035;-85
2022/10/19 02:16:28;;;;;;;13.88;5.57;;;;;;;10.45;100.00;100270.22;4957388;29;20788;-85
2022/10/19 02:18:54;;;;;;;11.60;4.93;;;;;;;10.46;100.00;100268.44;4957495;29;20035;-85
2022/10/19 02:21:20;;;;;;;7.90;4.53;;;;;;;10.50;100.00;100272.38;4956814;28;20486;-85
2022/10/19 02:23:45;;;;;;;13.38;4.47;;;;;;;10.40;100.00;100257.59;4958718;29;20069;-85
2022/10/19 02:26:11;;;;;;;8.95;4.25;;;;;;;10.40;100.00;100247.09;4958401;28;20027;-84
2022/10/19 02:28:37;;;;;;;8.43;3.90;;;;;;;10.31;100.00;100242.81;4956931;28;20530;-85
2022/10/19 02:31:04;;;;;;;9.68;4.18;;;;;;;10.41;100.00;100256.59;4957361;29;20051;-85
2022/10/19 02:33:30;;;;;;;7.80;3.70;;;;;;;10.40;100.00;100238.38;4956616;29;20090;-86
2022/10/19 02:35:57;;;;;;;8.77;3.95;;;;;;;10.40;100.00;100236.59;4957140;29;21092;-86
2022/10/19 02:38:23;;;;;;;13.90;4.43;;;;;;;10.51;100.00;100250.38;4956118;29;20090;-85
2022/10/19 02:41:12;;;;;;;6.65;3.30;;;;;;;10.52;100.00;100238.91;4955538;29;20031;-84
2022/10/19 02:43:41;;;;;;;8.35;3.60;;;;;;;10.46;100.00;100245.63;4929965;29;20049;-84
2022/10/19 02:46:16;;;;;;;5.47;3.22;;;;;;;10.47;100.00;100239.38;4955810;29;20118;-84
2022/10/19 02:48:43;;;;;;;7.93;3.38;;;;;;;10.41;100.00;100222.47;4956441;29;20028;-84
2022/10/19 02:51:29;;;;;;;7.63;3.08;;;;;;;10.52;100.00;100231.03;4955438;29;20091;-85
2022/10/19 02:53:55;;;;;;;7.60;3.75;;;;;;;10.54;100.00;100231.69;4954719;29;20027;-84
2022/10/19 02:56:21;;;;;;;9.88;3.35;;;;;;;10.44;100.00;100210.84;4957129;29;20387;-85
2022/10/19 02:58:47;;;;;;;4.97;2.78;;;;;;;10.49;100.00;100224.28;4956312;28;20046;-85
2022/10/19 03:01:13;;;;;;;9.75;3.05;;;;;;;10.43;100.00;100228.41;4939419;29;20035;-84
2022/10/19 03:03:40;;;;;;;8.38;3.00;;;;;;;10.48;100.00;100221.84;4939799;29;20039;-85
2022/10/19 03:06:07;;;;;;;8.45;3.40;;;;;;;10.47;100.00;100231.50;4956464;28;20035;-85
2022/10/19 03:08:33;;;;;;;8.48;3.08;;;;;;;10.49;100.00;100223.47;4956891;28;20078;-85
2022/10/19 03:10:58;;;;;;;5.05;2.88;;;;;;;10.56;100.00;100232.31;4957145;28;20031;-86
2022/10/19 03:13:24;;;;;;;8.02;2.92;;;;;;;10.55;100.00;100214.94;4956362;28;20043;-85
2022/10/19 03:15:50;;;;;;;6.55;3.13;;;;;;;10.60;100.00;100224.97;4953296;29;20134;-85
2022/10/19 03:18:15;;;;;;;6.72;3.65;;;;;;;10.49;100.00;100224.28;4955281;28;20046;-85
2022/10/19 03:20:41;;;;;;;8.98;3.17;;;;;;;10.32;100.00;100207.69;4956351;28;20031;-84
2022/10/19 03:23:06;;;;;;;8.18;3.50;;;;;;;10.41;100.00;100222.47;4955064;29;20023;-84
2022/10/19 03:25:32;;;;;;;8.45;4.00;;;;;;;10.45;100.00;100222.19;4955566;28;20496;-85
2022/10/19 03:27:58;;;;;;;6.72;3.67;;;;;;;10.47;100.00;100228.09;4955010;29;20027;-83
2022/10/19 03:30:24;;;;;;;18.00;6.07;;;;;;;10.55;100.00;100239.41;4954727;29;20401;-83
2022/10/19 03:32:49;;;;;;;10.05;4.20;;;;;;;10.43;100.00;100225.78;4954241;29;20027;-84
2022/10/19 03:35:15;;;;;;;6.50;3.65;;;;;;;10.46;100.00;100224.63;4954534;28;20038;-85
2022/10/19 03:37:40;;;;;;;10.73;3.55;;;;;;;10.52;100.00;100231.88;4954644;29;20109;-84
2022/10/19 03:40:06;;;;;;;7.88;3.97;;;;;;;10.50;100.00;100214.63;4954659;29;20054;-86
2022/10/19 03:42:32;;;;;;;4.85;3.22;;;;;;;10.53;100.00;100214.28;4956231;28;20055;-84
2022/10/19 03:44:58;;;;;;;9.05;3.58;;;;;;;10.50;100.00;100209.38;4938572;29;20033;-84
2022/10/19 03:47:24;;;;;;;8.60;2.97;;;;;;;10.49;100.00;100218.22;4954413;29;20035;-83
2022/10/19 03:49:49;;;;;;;6.97;3.10;;;;;;;10.46;100.00;100218.56;4955529;28;20030;-83
2022/10/19 03:52:17;;;;;;;8.52;3.50;;;;;;;10.52;100.00;100228.41;4954595;29;20118;-85
2022/10/19 03:54:43;;;;;;;10.10;2.90;;;;;;;10.51;100.00;100217.06;4954745;29;20098;-84
2022/10/19 03:57:09;;;;;;;6.15;2.50;;;;;;;10.53;100.00;100220.38;4954674;28;20035;-85
2022/10/19 03:59:35;;;;;;;7.63;3.13;;;;;;;10.56;100.00;100219.19;4955639;28;20027;-85
2022/10/19 04:02:04;;;;;;;7.50;3.40;;;;;;;10.48;100.00;100206.91;4955372;28;20075;-85
2022/10/19 04:04:33;;;;;;;9.00;3.35;;;;;;;10.47;100.00;100209.72;4953702;29;20584;-85
2022/10/19 04:06:59;;;;;;;5.72;2.92;;;;;;;10.48;100.00;100206.91;4934939;29;20190;-84
2022/10/19 04:09:30;;;;;;;11.10;3.08;;;;;;;10.50;100.00;100215.44;4954666;28;20031;-86
2022/10/19 04:12:01;;;;;;;9.32;3.20;;;;;;;10.53;100.00;100209.03;4955879;28;20031;-85
2022/10/19 04:14:27;;;;;;;7.90;3.25;;;;;;;10.52;100.00;100207.41;4956273;28;20058;-84
2022/10/19 04:16:53;;;;;;;11.20;3.47;;;;;;;10.52;100.00;100194.28;4955364;28;20023;-84
2022/10/19 04:19:19;;;;;;;5.35;3.03;;;;;;;10.52;100.00;100204.78;4937850;29;20034;-84
2022/10/19 04:21:47;;;;;;;6.85;2.85;;;;;;;10.41;100.00;100201.47;4953592;29;20035;-84
2022/10/19 04:24:15;;;;;;;7.22;3.10;;;;;;;10.39;100.00;100207.88;4938194;29;20035;-86
2022/10/19 04:26:43;;;;;;;7.28;3.13;;;;;;;10.41;100.00;100193.59;4938271;29;20058;-85
2022/10/19 04:29:10;;;;;;;6.75;2.60;;;;;;;10.38;100.00;100180.78;4955492;28;20023;-85
2022/10/19 04:31:37;;;;;;;5.85;2.40;;;;;;;10.41;100.00;100185.72;4953192;29;20093;-85
2022/10/19 04:34:03;;;;;;;7.43;2.15;;;;;;;10.40;100.00;100191.97;4954511;29;20130;-85
2022/10/19 04:36:29;;;;;;;4.47;2.20;;;;;;;10.37;100.00;100184.41;4953331;28;20042;-84
2022/10/19 04:38:54;;;;;;;9.93;2.50;;;;;;;10.35;100.00;100186.38;4937643;29;20035;-84
2022/10/19 04:41:21;;;;;;;7.78;2.90;;;;;;;10.37;100.00;100179.16;4954110;29;20035;-85
2022/10/19 04:43:47;;;;;;;5.40;2.40;;;;;;;10.43;100.00;100189.03;4955651;29;20035;-86
2022/10/19 04:46:15;;;;;;;7.90;2.40;;;;;;;10.39;100.00;100190.31;4954256;29;20046;-85
2022/10/19 04:48:42;;;;;;;6.95;2.17;;;;;;;10.32;100.00;100186.69;4954441;29;20086;-84
2022/10/19 04:51:09;;;;;;;7.57;2.35;;;;;;;10.26;100.00;100172.44;4954940;29;20564;-86
2022/10/19 04:53:36;;;;;;;5.45;2.50;;;;;;;10.35;100.00;100175.88;4928972;29;20055;-85
2022/10/19 04:56:07;;;;;;;5.65;2.67;;;;;;;10.33;100.00;100156.03;4950472;29;20031;-84
2022/10/19 04:58:34;;;;;;;8.10;2.90;;;;;;;10.42;100.00;100176.06;4955081;29;20073;-85
2022/10/19 05:01:10;;;;;;;7.43;2.90;;;;;;;10.46;100.00;100177.38;4939576;29;20121;-84
2022/10/19 05:03:36;;;;;;;11.55;3.47;;;;;;;10.40;100.00;100165.72;4955887;28;20058;-83
2022/10/19 05:06:03;;;;;;;9.60;3.55;;;;;;;10.40;100.00;100167.50;4954017;29;20027;-83
2022/10/19 05:08:28;;;;;;;7.72;2.88;;;;;;;10.34;100.00;100160.31;4954236;29;20031;-84
2022/10/19 05:11:02;;;;;;;5.45;2.45;;;;;;;10.43;100.00;100168.03;4953501;29;20027;-84
2022/10/19 05:13:28;;;;;;;;;;;;;;;10.48;100.00;100164.09;4954678;29;20032;-85
2022/10/19 05:15:55;;;;;;;7.55;2.45;;;;;;;10.37;100.00;100158.16;4938382;29;20344;-83
2022/10/19 05:18:21;;;;;;;4.95;1.75;;;;;;;10.29;100.00;100155.53;4955549;28;20027;-84
2022/10/19 05:20:47;;;;;;;8.30;2.20;;;;;;;10.22;100.00;100160.63;4954491;29;20121;-85
2022/10/19 05:23:12;;;;;;;7.00;2.10;;;;;;;10.23;100.00;100185.06;4954319;29;20035;-83
2022/10/19 05:25:38;;;;;;;7.97;2.30;;;;;;;10.26;100.00;100171.63;4953416;29;20104;-84
2022/10/19 05:28:04;;;;;;;5.28;2.10;;;;;;;10.20;100.00;100165.22;4952879;29;20368;-85
2022/10/19 05:30:29;;;;;;;5.38;2.20;;;;;;;10.34;100.00;100168.97;4937549;29;20031;-85
2022/10/19 05:32:55;;;;;;;7.78;2.20;;;;;;;10.40;100.00;100165.72;4937264;29;20027;-84
2022/10/19 05:35:21;;;;;;;4.57;1.95;;;;;;;10.36;100.00;100156.50;4952895;28;20482;-84
2022/10/19 05:37:54;;;;;;;6.97;2.33;;;;;;;10.34;100.00;100148.00;4952968;28;20530;-85
2022/10/19 05:40:19;;;;;;;5.38;2.22;;;;;;;10.36;100.00;100142.59;4954818;28;20493;-85
2022/10/19 05:42:45;;;;;;;4.13;1.85;;;;;;;10.39;100.00;100144.88;4952868;29;20051;-85
2022/10/19 05:45:11;;;;;;;5.53;2.10;;;;;;;10.32;100.00;100142.09;4953317;29;20097;-84
2022/10/19 05:47:36;;;;;;;7.28;2.25;;;;;;;10.31;100.00;100137.00;4953395;28;20067;-84
2022/10/19 05:50:02;;;;;;;3.03;1.83;;;;;;;10.30;100.00;100125.69;4941026;29;20124;-85
2022/10/19 05:52:28;;;;;;;7.18;2.22;;;;;;;10.35;100.00;100136.50;4957914;29;20078;-86
2022/10/19 05:54:57;;;;;;;5.68;1.90;;;;;;;10.33;100.00;100133.22;4957731;29;20124;-84
2022/10/19 05:57:23;;;;;;;4.55;2.28;;;;;;;10.29;100.00;100124.84;4957836;29;20442;-84
2022/10/19 05:59:50;;;;;;;3.53;1.95;;;;;;;10.42;100.00;100139.31;4957180;29;20117;-85
2022/10/19 06:02:16;;;;;;;7.97;2.88;;;;;;;10.49;100.00;100134.22;4956693;29;20447;-84
2022/10/19 06:04:41;;;;;;;6.72;3.75;;;;;;;10.49;100.00;100129.78;4956448;29;20031;-85
2022/10/19 06:07:07;;;;;;;6.60;4.00;;;;;;;10.48;100.00;100122.91;4956146;29;20038;-85
2022/10/19 06:09:35;;;;;;;11.00;3.33;;;;;;;10.52;100.00;100112.91;4957588;29;20397;-84
2022/10/19 06:12:01;;;;;;;7.35;4.00;;;;;;;10.51;100.00;100112.06;4955700;29;20031;-85
2022/10/19 06:14:27;;;;;;;4.75;2.40;;;;;;;10.45;100.00;100110.13;4956936;28;20389;-84
2022/10/19 06:16:56;;;;;;;7.43;2.17;;;;;;;10.48;100.00;100101.09;4956039;29;20035;-83
2022/10/19 06:19:21;;;;;;;4.18;2.30;;;;;;;10.47;100.00;100104.72;4955718;29;20041;-84
2022/10/19 06:21:49;;;;;;;4.07;2.03;;;;;;;10.48;100.00;100115.03;4955767;29;20050;-84
2022/10/19 06:24:15;;;;;;;7.72;2.55;;;;;;;10.48;100.00;100114.22;4957412;28;20541;-83
2022/10/19 06:26:41;;;;;;;6.25;2.03;;;;;;;10.53;100.00;100120.63;4940227;29;20046;-86
2022/10/19 06:29:07;;;;;;;4.03;1.70;;;;;;;10.56;100.00;100122.06;4956307;29;20434;-86
2022/10/19 06:31:35;;;;;;;4.88;1.92;;;;;;;10.45;100.00;100114.56;4939697;29;20508;-84
2022/10/19 06:34:01;;;;;;;8.88;2.13;;;;;;;10.43;100.00;100107.69;4939509;29;20110;-83
2022/10/19 06:36:30;;;;;;;6.82;2.03;;;;;;;10.52;100.00;100105.00;4953037;29;20027;-85
2022/10/19 06:38:55;;;;;;;5.88;2.05;;;;;;;10.51;100.00;100098.94;4953070;29;20031;-86
2022/10/19 06:41:22;;;;;;;11.90;2.97;;;;;;;10.49;100.00;100092.22;4953493;29;20039;-86
2022/10/19 06:43:51;;;;;;;5.63;2.03;;;;;;;10.59;100.00;100108.59;4937857;29;20054;-86
2022/10/19 06:46:20;;;;;;;8.93;2.10;;;;;;;10.65;100.00;100113.19;4954366;29;20379;-88
2022/10/19 06:48:54;;;;;;;5.47;2.03;;;;;;;10.59;100.00;100102.53;4937666;29;20073;-87
2022/10/19 06:51:20;;;;;;;5.47;2.17;;;;;;;10.55;100.00;100097.63;4952748;29;20035;-86
2022/10/19 06:53:46;;;;;;;6.32;2.17;;;;;;;10.58;100.00;100091.22;4953176;29;20031;-87
2022/10/19 06:56:12;;;;;;;6.97;2.03;;;;;;;10.56;100.00;100082.69;4953151;29;20374;-85
2022/10/19 06:58:38;;;;;;;5.43;2.20;;;;;;;10.71;100.00;100099.38;4952609;28;20122;-85
2022/10/19 07:01:06;;;;;;;5.72;2.20;;;;;;;10.60;100.00;100072.69;4953436;28;20052;-88
2022/10/19 07:03:32;;;;;;;6.78;2.83;;;;;;;10.67;100.00;100074.47;4953056;29;20039;-86
2022/10/19 07:06:07;;;;;;;7.93;2.20;;;;;;;10.65;100.00;100072.97;4953513;29;20026;-87
2022/10/19 07:08:34;;;;;;;8.05;2.70;;;;;;;10.71;100.00;100074.94;4936529;29;20027;-86
2022/10/19 07:11:04;;;;;;;5.10;2.17;;;;;;;10.75;100.00;100073.63;4952951;28;20460;-86
2022/10/19 07:13:30;;;;;;;27.52;2.95;;;;;;;10.77;100.00;100068.19;4954000;28;20035;-85
2022/10/19 07:16:04;;;;;;;7.43;2.13;;;;;;;10.75;100.00;100068.38;4953712;29;20178;-85
2022/10/19 07:18:30;;;;;;;3.85;2.03;;;;;;;10.77;100.00;100062.94;4953809;29;20390;-86
2022/10/19 07:21:03;;;;;;;9.20;2.08;;;;;;;10.95;100.00;100060.88;4951499;29;20038;-84
2022/10/19 07:23:30;;;;;;;7.57;2.20;;;;;;;10.91;100.00;100046.44;4953850;28;20042;-85
2022/10/19 07:26:00;;;;;;;5.00;2.15;;;;;;;10.91;100.00;100043.81;4956367;28;20367;-85
2022/10/19 07:28:28;;;;;;;6.05;2.35;;;;;;;10.98;100.00;100050.03;4956202;28;20030;-86
2022/10/19 07:30:54;;;;;;;6.45;2.30;;;;;;;11.07;100.00;100044.75;4956812;28;20027;-84
2022/10/19 07:33:20;;;;;;;7.10;2.20;;;;;;;11.05;100.00;100028.34;4954578;29;20451;-85
2022/10/19 07:35:46;;;;;;;2.95;1.80;;;;;;;11.26;100.00;100044.28;4954514;28;20055;-87
2022/10/19 07:38:12;;;;;;;5.20;1.90;;;;;;;11.14;100.00;100027.28;4953422;29;20090;-86
2022/10/19 07:40:37;;;;;;;3.95;2.20;;;;;;;11.34;100.00;100042.59;4954739;29;20042;-85
2022/10/19 07:43:03;;;;;;;9.05;2.05;;;;;;;11.38;100.00;100043.88;4953824;28;20043;-85
2022/10/19 07:45:30;;;;;;;4.05;1.70;;;;;;;11.38;100.00;100041.25;4954182;29;20041;-84
2022/10/19 07:47:57;;;;;;;4.22;2.55;;;;;;;11.43;100.00;100028.41;4951905;29;20033;-86
2022/10/19 07:50:24;;;;;;;7.03;2.10;;;;;;;11.49;100.00;100024.25;4952667;29;20548;-85
2022/10/19 07:52:52;;;;;;;4.30;1.90;;;;;;;11.49;100.00;100035.59;4953244;29;20031;-85
2022/10/19 07:55:18;;;;;;;6.05;2.28;;;;;;;11.55;100.00;100024.38;4953398;28;20085;-84
2022/10/19 07:57:48;;;;;;;6.55;2.17;;;;;;;11.57;100.00;100027.63;4953548;29;20106;-85
2022/10/19 08:00:15;;;;;;;5.00;1.77;;;;;;;11.55;100.00;100024.38;4952765;29;20531;-86
2022/10/19 08:02:41;;;;;;;7.35;1.95;;;;;;;11.74;100.00;100027.50;4936718;29;20035;-84
2022/10/19 08:05:07;;;;;;;8.18;2.00;;;;;;;11.74;100.00;100027.50;4955093;29;20039;-85
2022/10/19 08:07:36;;;;;;;6.65;1.80;;;;;;;11.66;100.00;100022.31;4954477;28;20037;-87
2022/10/19 08:10:06;;;;;;;10.02;2.15;;;;;;;11.79;100.00;100034.88;4951256;28;20440;-86
2022/10/19 08:12:35;;;;;;;7.28;2.13;;;;;;;11.66;100.00;100011.81;4936248;29;20071;-88
2022/10/19 08:15:00;;;;;;;6.70;1.95;;;;;;;11.64;100.00;100027.75;4952110;29;20043;-87
2022/10/19 08:17:26;;;;;;;7.43;2.50;;;;;;;11.68;100.00;100017.69;4953417;28;20136;-88
2022/10/19 08:19:51;;;;;;;7.30;2.05;;;;;;;11.63;100.00;100004.28;4953318;28;20023;-85
2022/10/19 08:22:17;;;;;;;6.32;1.98;;;;;;;11.48;100.00;100002.41;4951577;29;20121;-87
2022/10/19 08:24:43;;;;;;;5.65;1.88;;;;;;;11.59;100.00;100014.31;4952253;29;20065;-88
2022/10/19 08:27:10;;;;;;;9.77;2.22;;;;;;;11.72;100.00;100021.59;4950745;29;20058;-87
2022/10/19 08:29:36;;;;;;;13.18;2.17;;;;;;;11.78;100.00;100013.00;4951667;29;20027;-88
2022/10/19 08:32:02;;;;;;;3.75;1.80;;;;;;;11.74;100.00;100006.47;4952907;28;20531;-87
2022/10/19 08:34:28;;;;;;;8.20;2.17;;;;;;;11.77;100.00;100011.34;4951435;29;20042;-86
2022/10/19 08:36:53;;;;;;;4.30;2.58;;;;;;;11.68;100.00;100017.69;4951836;28;20174;-87
2022/10/19 08:39:18;;;;;;;5.75;1.83;;;;;;;11.74;100.00;100014.34;4951534;29;20095;-88
2022/10/19 08:41:44;;;;;;;6.82;1.95;;;;;;;11.83;100.00;100021.19;4951467;28;20452;-87
2022/10/19 08:44:31;;;;;;;7.00;2.00;;;;;;;11.94;100.00;100016.47;4953162;28;20031;-87
2022/10/19 08:47:13;;;;;;;8.73;1.70;;;;;;;11.94;100.00;100019.09;4950878;29;20383;-85
2022/10/19 08:49:39;;;;;;;10.27;2.92;;;;;;;11.99;100.00;100008.88;4933191;29;20038;-86
2022/10/19 08:52:12;;;;;;;7.30;2.53;;;;;;;12.02;100.00;100003.28;4949482;28;20027;-89
2022/10/19 08:54:45;;;;;;;4.47;1.80;;;;;;;12.12;100.00;100006.44;4947384;29;20118;-88
2022/10/19 08:57:19;;;;;;;3.50;1.70;;;;;;;12.11;100.00;99999.56;4936254;29;20134;-89
2022/10/19 08:59:56;;;;;;;3.90;1.80;;;;;;;12.22;100.00;99986.97;4949448;28;20098;-86
2022/10/19 09:02:41;;;;;;;5.60;1.95;;;;;;;12.35;100.00;99992.38;4951293;29;20034;-86
2022/10/19 09:05:28;;;;;;;10.05;2.20;;;;;;;12.57;100.00;100008.25;4951121;29;20035;-90
2022/10/19 09:07:54;;;;;;;6.78;2.20;;;;;;;12.53;100.00;100006.97;4951825;29;20452;-86
2022/10/19 09:10:27;;;;;;;6.82;1.98;;;;;;;12.64;100.00;100011.81;4952913;29;20122;-87
2022/10/19 09:13:06;;;;;;;5.32;1.65;;;;;;;12.63;100.00;99980.38;4953790;29;20502;-87
2022/10/19 09:15:35;;;;;;;7.28;2.10;;;;;;;12.70;100.00;100002.34;4949671;29;20027;-86
2022/10/19 09:18:01;;;;;;;6.53;2.17;;;;;;;12.70;100.00;99994.44;4951444;29;20039;-88
2022/10/19 09:20:37;;;;;;;3.90;1.67;;;;;;;12.77;100.00;99979.53;4953449;29;20031;-87
2022/10/19 09:23:28;;;;;;;10.98;2.25;;;;;;;12.93;100.00;99975.03;4937141;29;20119;-85
2022/10/19 09:25:55;;;;;;;7.57;2.08;;;;;;;13.16;100.00;99972.19;4956966;28;20501;-84
2022/10/19 09:28:48;;;;;;;7.88;2.00;;;;;;;13.12;100.00;99984.97;4940551;29;20039;-88
2022/10/19 09:31:36;;;;;;;4.97;2.20;;;;;;;13.37;100.00;99978.50;4952493;29;20035;-84
2022/10/19 09:34:07;;;;;;;8.13;2.42;;;;;;;13.47;100.00;99967.66;4954899;29;20039;-84
2022/10/19 09:36:48;;;;;;;4.65;2.22;;;;;;;13.73;100.00;99966.22;4958261;28;20055;-84
2022/10/19 09:39:13;;;;;;;8.18;2.65;;;;;;;13.75;100.00;99974.75;4958243;29;20140;-84
2022/10/19 09:41:56;;;;;;;9.02;2.25;;;;;;;13.64;100.00;99981.38;4957292;29;20510;-84
2022/10/19 09:44:23;;;;;;;8.45;2.33;;;;;;;13.56;100.00;99958.59;4971530;28;20038;-84
2022/10/19 09:47:04;;;;;;;10.32;2.30;;;;;;;13.66;100.00;99961.72;4957292;29;20517;-85
2022/10/19 09:49:41;;;;;;;9.98;2.55;;;;;;;13.67;100.00;99978.34;4958121;29;20091;-85
2022/10/19 09:52:29;;;;;;;6.35;2.22;;;;;;;13.68;100.00;99974.72;4943992;29;20039;-84
2022/10/19 09:55:14;;;;;;;8.48;2.25;;;;;;;13.76;100.00;99956.09;4959320;29;20634;-84
2022/10/19 09:57:48;;;;;;;10.48;2.70;;;;;;;13.82;100.00;99955.31;4961272;29;20139;-85
2022/10/19 10:00:23;;;;;;;13.68;3.25;;;;;;;14.03;100.00;99966.81;4973391;28;20125;-84
2022/10/19 10:02:54;;;;;;;8.85;2.30;;;;;;;14.13;100.00;99954.06;4972444;28;20366;-84
2022/10/19 10:05:50;;;;;;;4.70;2.22;;;;;;;14.15;100.00;99953.88;4955957;29;20058;-84
2022/10/19 10:08:26;;;;;;;9.63;2.63;;;;;;;14.31;100.00;99951.94;4950519;29;20047;-83
2022/10/19 10:11:08;;;;;;;10.27;2.80;;;;;;;14.27;100.00;99954.13;4939907;29;20400;-81
2022/10/19 10:13:43;;;;;;;7.80;2.53;;;;;;;14.23;100.00;99956.34;4957421;28;20375;-84
2022/10/19 10:16:12;;;;;;;7.18;2.58;;;;;;;14.05;100.00;99945.50;4941234;29;20019;-86
2022/10/19 10:18:59;;;;;;;5.60;2.53;;;;;;;14.23;100.00;99934.44;4956935;29;20086;-83
2022/10/19 10:21:33;;;;;;;10.73;2.90;;;;;;;14.32;100.00;99927.94;4954866;29;20050;-85
2022/10/19 10:24:09;;;;;;;7.15;2.60;;;;;;;14.36;100.00;99928.38;4954131;29;20045;-86
2022/10/19 10:48:16;;;;;;;9.93;3.50;;;;;;;14.21;100.00;99917.97;5165122;27;20848;-87
2022/10/19 10:50:43;;;;;;;7.40;2.83;;;;;;;14.04;100.00;99891.06;5112414;28;20027;-87
2022/10/19 10:53:27;;;;;;;7.88;2.80;;;;;;;14.38;100.00;99900.78;5129676;28;20042;-88
2022/10/19 10:55:56;;;;;;;9.73;2.92;;;;;;;14.46;100.00;99909.53;5128628;28;20381;-87
2022/10/19 10:58:47;;;;;;;6.45;3.25;;;;;;;14.53;100.00;99910.34;5126473;28;20046;-90
2022/10/19 11:01:19;;;;;;;14.15;3.70;;;;;;;14.68;100.00;99900.44;5130192;28;20079;-87
2022/10/19 11:03:55;;;;;;;9.00;3.38;;;;;;;14.77;100.00;99903.72;5132366;28;20035;-87
2022/10/19 11:06:24;;;;;;;11.63;2.85;;;;;;;14.76;100.00;99890.72;5132067;27;20402;-88
2022/10/19 11:08:58;;;;;;;7.18;3.08;;;;;;;14.84;100.00;99890.53;5131595;27;20092;-85
2022/10/19 11:11:31;;;;;;;9.77;3.15;;;;;;;15.06;100.00;99887.69;5130784;28;20524;-86
2022/10/19 11:14:07;;;;;;;5.97;3.13;;;;;;;15.12;100.00;99881.59;5129892;28;20116;-86
2022/10/19 11:16:43;;;;;;;9.55;3.55;;;;;;;15.36;100.00;99871.44;5127932;28;20362;-88
2022/10/19 11:19:34;;;;;;;9.40;3.20;;;;;;;15.36;100.00;99874.88;5130014;28;20023;-88
2022/10/19 11:22:13;;;;;;;12.85;3.25;;;;;;;15.67;100.00;99875.22;5112589;28;20480;-88
2022/10/19 11:25:08;;;;;;;7.03;3.15;;;;;;;15.63;100.00;99874.00;5129505;28;20027;-86
2022/10/19 11:28:13;;;;;;;7.25;2.88;;;;;;;15.75;100.00;99872.38;5129340;28;20027;-84
2022/10/19 11:31:03;;;;;;;4.85;2.67;;;;;;;15.81;100.00;99866.22;5086290;28;20396;-86
2022/10/19 11:33:38;;;;;;;7.80;3.08;;;;;;;15.74;100.00;99861.97;5128877;28;20023;-86
2022/10/19 11:36:21;;;;;;;5.20;3.10;;;;;;;15.97;100.00;99851.72;5130874;27;20080;-88
2022/10/19 11:39:14;;;;;;;7.85;3.50;;;;;;;15.99;100.00;99856.84;5128944;28;20530;-87
2022/10/19 11:41:42;;;;;;;8.95;3.38;;;;;;;15.92;100.00;99842.81;5111522;28;20034;-88
2022/10/19 11:44:42;;;;;;;7.70;3.13;;;;;;;15.97;100.00;99837.69;5129813;28;20027;-89
2022/10/19 11:47:24;;;;;;;13.60;3.53;;;;;;;15.99;100.00;99825.06;5127117;28;20050;-88
2022/10/19 11:50:26;;;;;;;8.70;3.25;;;;;;;15.81;100.00;99820.41;5115655;28;20122;-86
2022/10/19 11:52:58;;;;;;;9.13;2.95;;;;;;;15.76;100.00;99815.75;5114592;28;20036;-87
2022/10/19 11:55:39;;;;;;;9.15;3.33;;;;;;;15.84;100.00;99810.22;5115853;27;20122;-86